Date,TemperatureHighF,TemperatureAvgF,TemperatureLowF,DewpointHighF,DewpointAvgF,DewpointLowF,HumidityHigh,HumidityAvg,HumidityLow,PressureMaxIn,PressureMinIn,WindSpeedMaxMPH,WindSpeedAvgMPH,GustSpeedMaxMPH,PrecipitationSumIn
2013-1-1,31,27,19,30,25,15,97,91,83,30.25,30.09,8,0,8,0.00
2013-1-2,26,18,9,17,11,6,91,76,48,30.34,30.22,6,0,6,0.00
2013-1-3,34,24,15,24,16,7,83,74,63,30.41,30.29,22,4,22,0.00
2013-1-4,32,27,23,23,20,18,88,75,58,30.44,30.38,26,5,26,0.00
2013-1-5,39,30,22,29,24,20,93,79,54,30.41,30.18,19,3,19,0.04
2013-1-6,36,31,23,31,26,20,89,82,75,30.43,30.09,26,5,26,0.04
2013-1-7,39,28,19,27,22,18,95,82,57,30.52,30.28,15,1,15,0.02
2013-1-8,48,36,27,32,28,23,85,71,48,30.35,30.25,15,2,15,0.06
2013-1-9,53,44,39,42,36,30,96,74,46,30.55,30.24,20,3,20,0.14
2013-1-10,47,39,37,45,34,30,96,83,71,30.55,30.05,14,4,14,0.10
2013-1-11,59,54,46,53,50,44,97,85,71,30.07,29.88,21,4,21,0.58
2013-1-12,64,58,53,62,54,47,98,88,76,30.02,29.66,19,3,19,1.67
2013-1-13,64,39,23,62,37,19,97,95,88,30.28,29.63,20,3,25,1.52
2013-1-14,24,21,17,21,18,14,91,87,79,30.53,30.25,15,2,16,0.00
2013-1-15,31,25,18,25,21,16,92,84,71,30.46,30.14,14,2,14,0.00
2013-1-16,34,30,27,26,23,17,90,77,50,30.17,30.05,16,2,16,0.00
2013-1-17,41,32,23,32,24,16,82,74,57,30.50,30.15,19,1,19,0.00
2013-1-18,41,30,17,25,19,15,91,66,38,30.58,30.24,21,3,21,0.00
2013-1-19,54,45,38,35,28,21,61,51,41,30.25,29.93,31,9,31,0.00
2013-1-20,45,28,22,37,12,8,74,51,38,30.31,29.99,14,2,35,0.00
2013-1-21,22,17,9,16,6,-3,82,62,42,30.37,30.21,31,6,31,0.00
2013-1-22,16,9,3,0,-3,-4,74,59,40,30.50,30.36,19,3,22,0.00
2013-1-23,24,15,8,15,5,-1,78,62,50,30.47,30.19,15,1,15,0.00
2013-1-24,23,19,12,14,5,-2,82,57,35,30.68,30.25,18,2,18,0.00
2013-1-25,27,22,18,19,13,2,87,68,45,30.46,30.13,16,2,16,0.00
2013-1-26,32,24,16,19,17,13,89,74,55,30.50,30.19,11,1,11,0.00
2013-1-27,39,29,20,38,23,15,96,80,62,30.48,30.14,10,2,10,0.27
2013-1-28,56,49,39,55,48,38,98,95,89,30.18,30.03,21,5,21,0.49
2013-1-29,65,58,54,59,55,52,98,90,82,30.04,29.46,28,5,28,0.00
2013-1-30,66,46,27,60,44,21,97,90,74,29.69,29.29,40,6,40,1.39
2013-1-31,29,23,11,22,16,4,93,75,57,30.20,29.68,32,8,32,0.00
2013-2-1,17,10,3,8,3,-2,85,73,60,30.52,30.20,24,4,28,0.00
2013-2-2,30,22,13,24,18,8,91,84,69,30.40,30.08,20,3,20,0.00
2013-2-3,25,19,13,21,14,9,91,83,72,30.20,30.04,24,2,24,0.00
2013-2-4,39,29,18,33,23,14,92,80,54,30.19,29.86,26,3,26,0.08
2013-2-5,40,32,23,33,27,22,94,83,68,30.10,29.90,19,2,19,0.00
2013-2-6,35,31,28,31,26,24,88,83,73,30.32,30.10,12,1,12,0.00
2013-2-7,60,43,30,46,33,26,95,71,39,30.24,29.84,11,2,11,0.17
2013-2-8,47,33,28,45,30,24,95,87,81,30.40,29.86,24,3,24,0.02
2013-2-9,41,31,23,26,22,20,90,72,50,30.47,30.22,10,2,10,0.00
2013-2-10,50,43,35,48,35,21,95,73,55,30.22,29.77,26,4,26,0.10
2013-2-11,51,42,35,49,32,26,95,67,54,30.10,29.76,38,9,38,0.00
2013-2-12,47,36,26,28,26,22,92,69,39,30.20,29.97,15,2,15,0.00
2013-2-13,44,33,28,31,26,24,91,79,45,29.97,29.84,15,2,16,0.00
2013-2-14,50,40,33,37,33,27,92,76,53,30.07,29.86,28,6,28,0.00
2013-2-15,38,31,23,30,24,16,84,76,50,30.23,30.03,19,2,19,0.00
2013-2-16,27,22,18,17,13,9,83,68,49,30.21,30.15,20,2,20,0.00
2013-2-17,35,23,10,17,8,-1,88,57,23,30.32,30.21,11,1,11,0.00
2013-2-18,60,42,27,42,28,11,91,59,36,30.22,29.65,38,5,38,0.37
2013-2-19,45,28,21,43,22,11,93,76,62,30.22,29.65,34,8,34,0.14
2013-2-20,27,20,14,16,11,6,81,66,49,30.40,30.21,24,3,24,0.00
2013-2-21,30,23,14,28,18,11,94,82,66,30.42,30.06,20,3,20,0.00
2013-2-22,36,33,29,34,30,27,97,91,82,30.06,29.90,18,3,18,0.20
2013-2-23,39,30,23,27,22,19,85,72,51,30.06,29.98,18,3,18,0.06
2013-2-24,43,31,20,27,23,18,94,75,52,30.20,30.03,11,1,11,0.01
2013-2-25,44,33,27,28,24,22,82,72,50,30.21,29.90,18,4,18,0.00
2013-2-26,43,38,33,42,35,25,97,88,61,29.90,29.41,22,4,22,0.95
2013-2-27,40,34,31,37,31,28,96,92,87,29.78,29.54,25,6,25,0.04
2013-2-28,36,33,31,32,30,28,95,91,85,30.05,29.76,21,4,21,0.02
2013-3-1,33,31,30,30,29,27,96,91,87,30.12,30.01,11,1,11,0.02
2013-3-2,29,27,25,27,23,20,92,83,71,30.17,30.10,18,1,18,0.01
2013-3-3,35,28,22,24,19,16,92,72,48,30.19,30.12,15,2,15,0.01
2013-3-4,39,32,23,27,21,17,81,65,48,30.19,30.00,12,2,12,0.00
2013-3-5,37,34,28,35,30,26,96,87,66,30.01,29.69,19,4,19,0.16
2013-3-6,31,28,26,30,27,25,96,96,96,30.35,29.80,12,1,12,0.00
2013-3-7,34,30,27,32,28,26,96,91,82,30.46,30.33,9,1,9,0.11
2013-3-8,43,34,25,29,26,23,94,73,50,30.54,30.40,10,2,10,0.06
2013-3-9,57,44,31,34,30,25,81,59,38,30.41,30.02,12,3,12,0.00
2013-3-10,67,59,52,41,36,32,53,43,28,30.02,29.75,22,3,22,0.02
2013-3-11,60,46,33,50,41,30,95,82,48,29.92,29.63,21,4,21,0.20
2013-3-12,46,36,31,31,27,23,93,71,44,30.11,29.92,19,4,19,0.00
2013-3-13,32,28,24,29,22,18,92,78,66,30.41,30.09,18,3,18,0.00
2013-3-14,45,31,18,30,21,15,93,70,32,30.43,30.24,15,1,15,0.01
2013-3-15,52,41,27,40,34,26,95,77,57,30.25,29.76,8,1,8,0.00
2013-3-16,56,46,36,50,40,31,88,79,69,30.07,29.64,15,2,15,0.03
2013-3-17,36,34,31,31,29,26,93,83,76,30.18,30.00,11,2,11,0.07
2013-3-18,44,37,32,42,35,31,97,94,89,30.00,29.66,12,3,16,0.90
2013-3-19,43,34,25,34,20,14,92,59,33,30.19,29.90,25,4,25,0.00
2013-3-20,34,29,24,21,15,8,75,56,42,30.18,30.07,22,3,22,0.00
2013-3-21,35,24,17,16,12,9,78,61,37,30.13,30.04,15,1,15,0.00
2013-3-22,47,32,21,18,13,11,70,48,24,30.15,30.04,10,1,10,0.00
2013-3-23,52,41,33,31,23,13,84,49,31,30.38,30.05,4,1,11,0.02
2013-3-24,38,33,28,31,28,23,95,82,58,30.18,29.73,6,3,16,0.00
2013-3-25,35,31,28,31,28,26,94,89,78,30.31,29.78,4,2,19,0.03
2013-3-26,41,34,30,30,27,23,91,75,50,30.57,30.31,4,2,14,0.37
2013-3-27,45,34,24,30,25,21,95,71,44,30.64,30.57,4,1,15,0.00
2013-3-28,51,36,23,29,25,21,93,67,39,30.68,30.59,2,1,14,0.00
2013-3-29,58,47,27,34,30,25,91,55,34,30.62,30.49,6,1,6,0.00
2013-3-30,61,46,29,39,33,27,93,64,35,30.53,30.19,8,1,8,0.00
2013-3-31,62,51,44,46,41,35,92,71,42,30.20,30.03,10,2,13,0.07
2013-4-1,48,40,34,42,26,16,80,58,33,30.44,30.10,13,2,17,0.00
2013-4-2,47,36,26,22,18,14,75,51,29,30.58,30.43,12,1,14,0.00
2013-4-3,49,37,23,21,18,14,81,47,29,30.72,30.56,11,1,11,0.00
2013-4-4,60,44,33,28,22,13,60,43,17,30.62,30.27,6,1,7,0.00
2013-4-5,60,45,30,34,27,24,81,54,30,30.42,30.26,13,1,13,0.00
2013-4-6,71,54,38,40,32,24,65,44,29,30.42,30.08,19,2,19,0.01
2013-4-7,74,66,58,48,42,37,61,43,31,30.18,30.04,19,3,19,0.00
2013-4-8,73,64,56,58,54,48,88,71,56,30.20,30.07,20,3,20,0.00
2013-4-9,81,69,57,60,56,52,84,65,41,30.24,30.10,20,3,20,0.00
2013-4-10,83,72,61,67,62,58,90,72,53,30.15,29.96,23,3,23,0.00
2013-4-11,67,61,50,62,58,49,96,91,81,30.02,29.77,14,2,14,1.09
2013-4-12,50,42,38,49,38,31,95,86,76,29.93,29.83,15,4,15,0.05